sensor_id;sensor_type;location;lat;lon;timestamp;temperature;humidity
19952;DHT22;10137;49.406;19.484;2022-11-25T00:01:08;1.40;99.90
19952;DHT22;10137;49.406;19.484;2022-11-25T00:03:40;1.40;99.90
19952;DHT22;10137;49.406;19.484;2022-11-25T00:06:13;1.40;99.90
19952;DHT22;10137;49.406;19.484;2022-11-25T00:08:43;1.40;99.90
19952;DHT22;10137;49.406;19.484;2022-11-25T00:11:12;1.40;99.90
19952;DHT22;10137;49.406;19.484;2022-11-25T00:13:42;1.40;99.90
19952;DHT22;10137;49.406;19.484;2022-11-25T00:16:11;1.30;99.90
19952;DHT22;10137;49.406;19.484;2022-11-25T00:18:42;1.40;99.90
19952;DHT22;10137;49.406;19.484;2022-11-25T00:21:14;1.40;99.90
19952;DHT22;10137;49.406;19.484;2022-11-25T00:23:43;1.40;99.90
19952;DHT22;10137;49.406;19.484;2022-11-25T00:26:12;1.40;99.90
19952;DHT22;10137;49.406;19.484;2022-11-25T00:28:42;1.40;99.90
19952;DHT22;10137;49.406;19.484;2022-11-25T00:31:12;1.30;99.90
19952;DHT22;10137;49.406;19.484;2022-11-25T00:33:40;1.30;99.90
19952;DHT22;10137;49.406;19.484;2022-11-25T00:36:15;1.20;99.90
19952;DHT22;10137;49.406;19.484;2022-11-25T00:38:44;1.10;99.90
19952;DHT22;10137;49.406;19.484;2022-11-25T00:41:13;1.10;99.90
19952;DHT22;10137;49.406;19.484;2022-11-25T00:43:58;1.00;99.90
19952;DHT22;10137;49.406;19.484;2022-11-25T00:46:44;0.90;99.90
19952;DHT22;10137;49.406;19.484;2022-11-25T00:49:12;1.00;99.90
19952;DHT22;10137;49.406;19.484;2022-11-25T00:51:41;0.90;99.90
19952;DHT22;10137;49.406;19.484;2022-11-25T00:54:12;1.00;99.90
19952;DHT22;10137;49.406;19.484;2022-11-25T00:56:40;0.90;99.90
19952;DHT22;10137;49.406;19.484;2022-11-25T00:59:09;1.00;99.90
19952;DHT22;10137;49.406;19.484;2022-11-25T01:01:37;1.00;99.90
19952;DHT22;10137;49.406;19.484;2022-11-25T01:04:06;1.10;99.90
19952;DHT22;10137;49.406;19.484;2022-11-25T01:06:35;1.00;99.90
19952;DHT22;10137;49.406;19.484;2022-11-25T01:09:05;1.10;99.90
19952;DHT22;10137;49.406;19.484;2022-11-25T01:11:36;1.10;99.90
19952;DHT22;10137;49.406;19.484;2022-11-25T01:14:04;1.00;99.90
19952;DHT22;10137;49.406;19.484;2022-11-25T01:16:32;0.90;99.90
19952;DHT22;10137;49.406;19.484;2022-11-25T01:19:00;0.90;99.90
19952;DHT22;10137;49.406;19.484;2022-11-25T01:21:30;0.90;99.90
19952;DHT22;10137;49.406;19.484;2022-11-25T01:23:59;0.80;99.90
19952;DHT22;10137;49.406;19.484;2022-11-25T01:26:30;0.80;99.90
19952;DHT22;10137;49.406;19.484;2022-11-25T01:29:00;0.70;99.90
19952;DHT22;10137;49.406;19.484;2022-11-25T01:31:30;0.50;99.90
19952;DHT22;10137;49.406;19.484;2022-11-25T01:34:00;0.50;99.90
19952;DHT22;10137;49.406;19.484;2022-11-25T01:36:29;0.40;99.90
19952;DHT22;10137;49.406;19.484;2022-11-25T01:38:58;0.40;99.90
19952;DHT22;10137;49.406;19.484;2022-11-25T01:41:27;0.40;99.90
19952;DHT22;10137;49.406;19.484;2022-11-25T01:44:10;0.40;99.90
19952;DHT22;10137;49.406;19.484;2022-11-25T01:46:46;0.40;99.90
19952;DHT22;10137;49.406;19.484;2022-11-25T01:49:17;0.30;99.90
19952;DHT22;10137;49.406;19.484;2022-11-25T01:51:49;0.20;99.90
19952;DHT22;10137;49.406;19.484;2022-11-25T01:54:23;0.10;99.90
19952;DHT22;10137;49.406;19.484;2022-11-25T01:56:56;0.20;99.90
19952;DHT22;10137;49.406;19.484;2022-11-25T01:59:26;0.00;99.90
19952;DHT22;10137;49.406;19.484;2022-11-25T02:01:56;0.00;99.90
19952;DHT22;10137;49.406;19.484;2022-11-25T02:04:30;0.10;99.90
19952;DHT22;10137;49.406;19.484;2022-11-25T02:07:04;0.20;99.90
19952;DHT22;10137;49.406;19.484;2022-11-25T02:09:34;0.20;99.90
19952;DHT22;10137;49.406;19.484;2022-11-25T02:12:05;0.30;99.90
19952;DHT22;10137;49.406;19.484;2022-11-25T02:14:34;0.30;99.90
19952;DHT22;10137;49.406;19.484;2022-11-25T02:17:03;0.40;99.90
19952;DHT22;10137;49.406;19.484;2022-11-25T02:19:41;0.20;99.90
19952;DHT22;10137;49.406;19.484;2022-11-25T02:22:14;0.20;99.90
19952;DHT22;10137;49.406;19.484;2022-11-25T02:24:46;0.20;99.90
19952;DHT22;10137;49.406;19.484;2022-11-25T02:27:18;0.10;99.90
19952;DHT22;10137;49.406;19.484;2022-11-25T02:29:47;0.00;99.90
19952;DHT22;10137;49.406;19.484;2022-11-25T02:32:20;0.00;99.90
19952;DHT22;10137;49.406;19.484;2022-11-25T02:34:48;-0.10;99.90
19952;DHT22;10137;49.406;19.484;2022-11-25T02:37:18;-0.10;99.90
19952;DHT22;10137;49.406;19.484;2022-11-25T02:39:48;0.00;99.90
19952;DHT22;10137;49.406;19.484;2022-11-25T02:42:18;0.00;99.90
19952;DHT22;10137;49.406;19.484;2022-11-25T02:44:47;0.00;99.90
19952;DHT22;10137;49.406;19.484;2022-11-25T02:47:16;0.10;99.90
19952;DHT22;10137;49.406;19.484;2022-11-25T02:49:44;0.10;99.90
19952;DHT22;10137;49.406;19.484;2022-11-25T02:52:13;0.10;99.90
19952;DHT22;10137;49.406;19.484;2022-11-25T02:54:41;0.00;99.90
19952;DHT22;10137;49.406;19.484;2022-11-25T02:57:09;0.00;99.90
19952;DHT22;10137;49.406;19.484;2022-11-25T02:59:39;0.00;99.90
19952;DHT22;10137;49.406;19.484;2022-11-25T03:02:06;0.00;99.90
19952;DHT22;10137;49.406;19.484;2022-11-25T03:04:33;0.00;99.90
19952;DHT22;10137;49.406;19.484;2022-11-25T03:07:02;0.00;99.90
19952;DHT22;10137;49.406;19.484;2022-11-25T03:09:30;0.00;99.90
19952;DHT22;10137;49.406;19.484;2022-11-25T03:11:58;0.00;99.90
19952;DHT22;10137;49.406;19.484;2022-11-25T03:14:54;0.00;99.90
19952;DHT22;10137;49.406;19.484;2022-11-25T03:17:23;0.00;99.90
19952;DHT22;10137;49.406;19.484;2022-11-25T03:19:50;0.10;99.90
19952;DHT22;10137;49.406;19.484;2022-11-25T03:22:17;0.20;99.90
19952;DHT22;10137;49.406;19.484;2022-11-25T03:24:45;0.20;99.90
19952;DHT22;10137;49.406;19.484;2022-11-25T03:27:13;0.30;99.90
19952;DHT22;10137;49.406;19.484;2022-11-25T03:29:41;0.30;99.90
19952;DHT22;10137;49.406;19.484;2022-11-25T03:32:09;0.30;99.90
19952;DHT22;10137;49.406;19.484;2022-11-25T03:34:37;0.40;99.90
19952;DHT22;10137;49.406;19.484;2022-11-25T03:37:05;0.40;99.90
19952;DHT22;10137;49.406;19.484;2022-11-25T03:39:33;0.30;99.90
19952;DHT22;10137;49.406;19.484;2022-11-25T03:42:00;0.30;99.90
19952;DHT22;10137;49.406;19.484;2022-11-25T03:44:29;0.20;99.90
19952;DHT22;10137;49.406;19.484;2022-11-25T03:46:57;0.30;99.90
19952;DHT22;10137;49.406;19.484;2022-11-25T03:49:26;0.20;99.90
19952;DHT22;10137;49.406;19.484;2022-11-25T03:51:54;0.30;99.90
19952;DHT22;10137;49.406;19.484;2022-11-25T03:54:22;0.20;99.90
19952;DHT22;10137;49.406;19.484;2022-11-25T03:56:51;0.20;99.90
19952;DHT22;10137;49.406;19.484;2022-11-25T03:59:19;0.20;99.90
19952;DHT22;10137;49.406;19.484;2022-11-25T04:01:47;0.40;99.90
19952;DHT22;10137;49.406;19.484;2022-11-25T04:04:15;0.40;99.90
19952;DHT22;10137;49.406;19.484;2022-11-25T04:06:45;0.60;99.90
19952;DHT22;10137;49.406;19.484;2022-11-25T04:09:14;0.60;99.90
19952;DHT22;10137;49.406;19.484;2022-11-25T04:11:42;0.70;99.90
19952;DHT22;10137;49.406;19.484;2022-11-25T04:14:28;0.70;99.90
19952;DHT22;10137;49.406;19.484;2022-11-25T04:16:57;0.70;99.90
19952;DHT22;10137;49.406;19.484;2022-11-25T04:19:25;0.80;99.90
19952;DHT22;10137;49.406;19.484;2022-11-25T04:21:54;0.90;99.90
19952;DHT22;10137;49.406;19.484;2022-11-25T04:24:26;0.90;99.90
19952;DHT22;10137;49.406;19.484;2022-11-25T04:26:54;0.90;99.90
19952;DHT22;10137;49.406;19.484;2022-11-25T04:29:22;0.90;99.90
19952;DHT22;10137;49.406;19.484;2022-11-25T04:31:50;1.00;99.90
19952;DHT22;10137;49.406;19.484;2022-11-25T04:34:18;1.00;99.90
19952;DHT22;10137;49.406;19.484;2022-11-25T04:36:46;1.10;99.90
19952;DHT22;10137;49.406;19.484;2022-11-25T04:39:16;1.10;99.90
19952;DHT22;10137;49.406;19.484;2022-11-25T04:41:43;1.00;99.90
19952;DHT22;10137;49.406;19.484;2022-11-25T04:44:10;1.00;99.90
19952;DHT22;10137;49.406;19.484;2022-11-25T04:46:40;1.00;99.90
19952;DHT22;10137;49.406;19.484;2022-11-25T04:49:10;1.00;99.90
19952;DHT22;10137;49.406;19.484;2022-11-25T04:51:38;1.00;99.90
19952;DHT22;10137;49.406;19.484;2022-11-25T04:54:06;0.90;99.90
19952;DHT22;10137;49.406;19.484;2022-11-25T04:56:35;1.00;99.90
19952;DHT22;10137;49.406;19.484;2022-11-25T04:59:02;1.00;99.90
19952;DHT22;10137;49.406;19.484;2022-11-25T05:01:48;0.90;99.90
19952;DHT22;10137;49.406;19.484;2022-11-25T05:04:16;0.90;99.90
19952;DHT22;10137;49.406;19.484;2022-11-25T05:06:45;0.90;99.90
19952;DHT22;10137;49.406;19.484;2022-11-25T05:09:13;0.80;99.90
19952;DHT22;10137;49.406;19.484;2022-11-25T05:11:42;0.80;99.90
19952;DHT22;10137;49.406;19.484;2022-11-25T05:14:09;0.90;99.90
19952;DHT22;10137;49.406;19.484;2022-11-25T05:16:37;0.90;99.90
19952;DHT22;10137;49.406;19.484;2022-11-25T05:19:05;1.00;99.90
19952;DHT22;10137;49.406;19.484;2022-11-25T05:21:34;1.10;99.90
19952;DHT22;10137;49.406;19.484;2022-11-25T05:24:02;1.20;99.90
19952;DHT22;10137;49.406;19.484;2022-11-25T05:26:30;1.20;99.90
19952;DHT22;10137;49.406;19.484;2022-11-25T05:28:59;1.20;99.90
19952;DHT22;10137;49.406;19.484;2022-11-25T05:31:26;1.10;99.90
19952;DHT22;10137;49.406;19.484;2022-11-25T05:33:54;1.20;99.90
19952;DHT22;10137;49.406;19.484;2022-11-25T05:36:22;1.20;99.90
19952;DHT22;10137;49.406;19.484;2022-11-25T05:38:50;1.20;99.90
19952;DHT22;10137;49.406;19.484;2022-11-25T05:41:19;1.20;99.90
19952;DHT22;10137;49.406;19.484;2022-11-25T05:43:47;1.20;99.90
19952;DHT22;10137;49.406;19.484;2022-11-25T05:46:17;1.20;99.90
19952;DHT22;10137;49.406;19.484;2022-11-25T05:48:46;1.10;99.90
19952;DHT22;10137;49.406;19.484;2022-11-25T05:51:15;1.20;99.90
19952;DHT22;10137;49.406;19.484;2022-11-25T05:53:43;1.10;99.90
19952;DHT22;10137;49.406;19.484;2022-11-25T05:56:11;1.20;99.90
19952;DHT22;10137;49.406;19.484;2022-11-25T05:58:39;1.20;99.90
19952;DHT22;10137;49.406;19.484;2022-11-25T06:01:07;1.20;99.90
19952;DHT22;10137;49.406;19.484;2022-11-25T06:03:38;1.20;99.90
19952;DHT22;10137;49.406;19.484;2022-11-25T06:06:06;1.30;99.90
19952;DHT22;10137;49.406;19.484;2022-11-25T06:08:38;1.20;99.90
19952;DHT22;10137;49.406;19.484;2022-11-25T06:11:11;1.20;99.90
19952;DHT22;10137;49.406;19.484;2022-11-25T06:13:42;1.20;99.90
19952;DHT22;10137;49.406;19.484;2022-11-25T06:16:12;1.20;99.90
19952;DHT22;10137;49.406;19.484;2022-11-25T06:18:43;1.30;99.90
19952;DHT22;10137;49.406;19.484;2022-11-25T06:21:13;1.40;99.90
19952;DHT22;10137;49.406;19.484;2022-11-25T06:23:43;1.40;99.90
19952;DHT22;10137;49.406;19.484;2022-11-25T06:26:13;1.50;99.90
19952;DHT22;10137;49.406;19.484;2022-11-25T06:28:45;1.50;99.90
19952;DHT22;10137;49.406;19.484;2022-11-25T06:31:15;1.50;99.90
19952;DHT22;10137;49.406;19.484;2022-11-25T06:33:47;1.60;99.90
19952;DHT22;10137;49.406;19.484;2022-11-25T06:36:17;1.60;99.90
19952;DHT22;10137;49.406;19.484;2022-11-25T06:38:46;1.60;99.90
19952;DHT22;10137;49.406;19.484;2022-11-25T06:41:14;1.60;99.90
19952;DHT22;10137;49.406;19.484;2022-11-25T06:43:41;1.70;99.90
19952;DHT22;10137;49.406;19.484;2022-11-25T06:46:10;1.70;99.90
19952;DHT22;10137;49.406;19.484;2022-11-25T06:48:38;1.80;99.90
19952;DHT22;10137;49.406;19.484;2022-11-25T06:51:10;1.80;99.90
19952;DHT22;10137;49.406;19.484;2022-11-25T06:53:39;1.80;99.90
19952;DHT22;10137;49.406;19.484;2022-11-25T06:56:11;1.70;99.90
19952;DHT22;10137;49.406;19.484;2022-11-25T06:58:40;1.70;99.90
19952;DHT22;10137;49.406;19.484;2022-11-25T07:01:12;1.70;99.90
19952;DHT22;10137;49.406;19.484;2022-11-25T07:03:41;1.70;99.90
19952;DHT22;10137;49.406;19.484;2022-11-25T07:06:11;1.70;99.90
19952;DHT22;10137;49.406;19.484;2022-11-25T07:08:39;1.70;99.90
19952;DHT22;10137;49.406;19.484;2022-11-25T07:11:08;1.70;99.90
19952;DHT22;10137;49.406;19.484;2022-11-25T07:13:37;1.70;99.90
19952;DHT22;10137;49.406;19.484;2022-11-25T07:16:07;1.70;99.90
19952;DHT22;10137;49.406;19.484;2022-11-25T07:18:36;1.70;99.90
19952;DHT22;10137;49.406;19.484;2022-11-25T07:21:07;1.60;99.90
19952;DHT22;10137;49.406;19.484;2022-11-25T07:23:37;1.70;99.90
19952;DHT22;10137;49.406;19.484;2022-11-25T07:26:07;1.60;99.90
19952;DHT22;10137;49.406;19.484;2022-11-25T07:28:36;1.60;99.90
19952;DHT22;10137;49.406;19.484;2022-11-25T07:31:06;1.70;99.90
19952;DHT22;10137;49.406;19.484;2022-11-25T07:33:34;1.80;99.90
19952;DHT22;10137;49.406;19.484;2022-11-25T07:36:03;1.80;99.90
19952;DHT22;10137;49.406;19.484;2022-11-25T07:38:32;1.80;99.90
19952;DHT22;10137;49.406;19.484;2022-11-25T07:41:06;1.80;99.90
19952;DHT22;10137;49.406;19.484;2022-11-25T07:43:34;1.80;99.90
19952;DHT22;10137;49.406;19.484;2022-11-25T07:46:10;1.80;99.90
19952;DHT22;10137;49.406;19.484;2022-11-25T07:48:39;1.80;99.90
19952;DHT22;10137;49.406;19.484;2022-11-25T07:51:14;1.80;99.90
19952;DHT22;10137;49.406;19.484;2022-11-25T07:53:42;1.90;99.90
19952;DHT22;10137;49.406;19.484;2022-11-25T07:56:12;2.00;99.90
19952;DHT22;10137;49.406;19.484;2022-11-25T07:58:40;2.00;99.90
19952;DHT22;10137;49.406;19.484;2022-11-25T08:01:10;2.10;99.90
19952;DHT22;10137;49.406;19.484;2022-11-25T08:03:40;2.10;99.90
19952;DHT22;10137;49.406;19.484;2022-11-25T08:06:11;2.20;99.90
19952;DHT22;10137;49.406;19.484;2022-11-25T08:08:39;2.20;99.90
19952;DHT22;10137;49.406;19.484;2022-11-25T08:11:07;2.30;99.90
19952;DHT22;10137;49.406;19.484;2022-11-25T08:13:38;2.40;99.90
19952;DHT22;10137;49.406;19.484;2022-11-25T08:16:06;2.40;99.90
19952;DHT22;10137;49.406;19.484;2022-11-25T08:18:35;2.40;99.90
19952;DHT22;10137;49.406;19.484;2022-11-25T08:21:04;2.40;99.90
19952;DHT22;10137;49.406;19.484;2022-11-25T08:23:33;2.40;99.90
19952;DHT22;10137;49.406;19.484;2022-11-25T08:26:03;2.40;99.90
19952;DHT22;10137;49.406;19.484;2022-11-25T08:28:31;2.40;99.90
19952;DHT22;10137;49.406;19.484;2022-11-25T08:31:05;2.50;99.90
19952;DHT22;10137;49.406;19.484;2022-11-25T08:33:33;2.50;99.90
19952;DHT22;10137;49.406;19.484;2022-11-25T08:36:02;2.60;99.90
19952;DHT22;10137;49.406;19.484;2022-11-25T08:38:30;2.60;99.90
19952;DHT22;10137;49.406;19.484;2022-11-25T08:40:59;2.60;99.90
19952;DHT22;10137;49.406;19.484;2022-11-25T08:43:26;2.80;99.90
19952;DHT22;10137;49.406;19.484;2022-11-25T08:45:55;3.20;99.90
19952;DHT22;10137;49.406;19.484;2022-11-25T08:48:24;3.70;99.90
19952;DHT22;10137;49.406;19.484;2022-11-25T08:50:53;4.30;99.90
19952;DHT22;10137;49.406;19.484;2022-11-25T08:53:21;4.80;99.90
19952;DHT22;10137;49.406;19.484;2022-11-25T08:55:49;5.30;99.90
19952;DHT22;10137;49.406;19.484;2022-11-25T08:58:17;5.70;99.90
19952;DHT22;10137;49.406;19.484;2022-11-25T09:00:46;6.20;99.90
19952;DHT22;10137;49.406;19.484;2022-11-25T09:03:14;6.40;99.90
19952;DHT22;10137;49.406;19.484;2022-11-25T09:05:44;6.90;99.90
19952;DHT22;10137;49.406;19.484;2022-11-25T09:08:11;7.10;99.90
19952;DHT22;10137;49.406;19.484;2022-11-25T09:10:40;7.40;99.90
19952;DHT22;10137;49.406;19.484;2022-11-25T09:13:08;7.60;99.90
19952;DHT22;10137;49.406;19.484;2022-11-25T09:15:37;7.80;99.90
19952;DHT22;10137;49.406;19.484;2022-11-25T09:18:07;7.90;99.90
19952;DHT22;10137;49.406;19.484;2022-11-25T09:20:37;8.00;99.90
19952;DHT22;10137;49.406;19.484;2022-11-25T09:23:07;8.30;99.90
19952;DHT22;10137;49.406;19.484;2022-11-25T09:25:36;8.40;99.90
19952;DHT22;10137;49.406;19.484;2022-11-25T09:28:04;8.40;99.90
19952;DHT22;10137;49.406;19.484;2022-11-25T09:30:32;8.20;99.90
19952;DHT22;10137;49.406;19.484;2022-11-25T09:33:01;8.00;99.90
19952;DHT22;10137;49.406;19.484;2022-11-25T09:35:29;7.80;99.90
19952;DHT22;10137;49.406;19.484;2022-11-25T09:37:56;7.40;99.90
19952;DHT22;10137;49.406;19.484;2022-11-25T09:40:33;7.10;99.90
19952;DHT22;10137;49.406;19.484;2022-11-25T09:43:06;6.80;99.90
19952;DHT22;10137;49.406;19.484;2022-11-25T09:46:02;6.60;99.90
19952;DHT22;10137;49.406;19.484;2022-11-25T09:49:04;6.40;99.90
19952;DHT22;10137;49.406;19.484;2022-11-25T09:51:46;6.30;99.90
19952;DHT22;10137;49.406;19.484;2022-11-25T09:54:20;6.30;99.90
19952;DHT22;10137;49.406;19.484;2022-11-25T09:56:54;6.40;99.90
19952;DHT22;10137;49.406;19.484;2022-11-25T09:59:33;6.60;99.90
19952;DHT22;10137;49.406;19.484;2022-11-25T10:02:13;6.80;99.90
19952;DHT22;10137;49.406;19.484;2022-11-25T10:04:47;6.80;99.90
19952;DHT22;10137;49.406;19.484;2022-11-25T10:07:21;6.60;99.90
19952;DHT22;10137;49.406;19.484;2022-11-25T10:09:52;6.50;99.90
19952;DHT22;10137;49.406;19.484;2022-11-25T10:12:26;6.40;99.90
19952;DHT22;10137;49.406;19.484;2022-11-25T10:14:59;6.30;99.90
19952;DHT22;10137;49.406;19.484;2022-11-25T10:17:34;6.10;99.90
19952;DHT22;10137;49.406;19.484;2022-11-25T10:20:06;6.20;99.90
19952;DHT22;10137;49.406;19.484;2022-11-25T10:22:41;6.10;99.90
19952;DHT22;10137;49.406;19.484;2022-11-25T10:25:14;6.00;99.90
19952;DHT22;10137;49.406;19.484;2022-11-25T10:27:47;6.00;99.90
19952;DHT22;10137;49.406;19.484;2022-11-25T10:30:18;5.90;99.90
19952;DHT22;10137;49.406;19.484;2022-11-25T10:32:51;5.90;99.90
19952;DHT22;10137;49.406;19.484;2022-11-25T10:35:28;5.90;99.90
19952;DHT22;10137;49.406;19.484;2022-11-25T10:37:59;5.90;99.90
19952;DHT22;10137;49.406;19.484;2022-11-25T10:40:28;5.80;99.90
19952;DHT22;10137;49.406;19.484;2022-11-25T10:42:57;5.70;99.90
19952;DHT22;10137;49.406;19.484;2022-11-25T10:45:29;5.60;99.90
19952;DHT22;10137;49.406;19.484;2022-11-25T10:48:06;5.70;99.90
19952;DHT22;10137;49.406;19.484;2022-11-25T10:50:43;5.50;99.90
19952;DHT22;10137;49.406;19.484;2022-11-25T10:53:19;5.60;99.90
19952;DHT22;10137;49.406;19.484;2022-11-25T10:55:59;5.60;99.90
19952;DHT22;10137;49.406;19.484;2022-11-25T10:58:32;5.40;99.90
19952;DHT22;10137;49.406;19.484;2022-11-25T11:01:08;5.40;99.90
19952;DHT22;10137;49.406;19.484;2022-11-25T11:03:38;5.50;99.90
19952;DHT22;10137;49.406;19.484;2022-11-25T11:06:31;5.50;99.90
19952;DHT22;10137;49.406;19.484;2022-11-25T11:08:59;5.50;99.90
19952;DHT22;10137;49.406;19.484;2022-11-25T11:11:26;5.50;99.90
19952;DHT22;10137;49.406;19.484;2022-11-25T11:14:11;5.60;99.90
19952;DHT22;10137;49.406;19.484;2022-11-25T11:16:43;5.60;99.90
19952;DHT22;10137;49.406;19.484;2022-11-25T11:19:23;5.60;99.90
19952;DHT22;10137;49.406;19.484;2022-11-25T11:21:55;5.60;99.90
19952;DHT22;10137;49.406;19.484;2022-11-25T11:24:29;5.60;99.90
19952;DHT22;10137;49.406;19.484;2022-11-25T11:27:05;5.50;99.90
19952;DHT22;10137;49.406;19.484;2022-11-25T11:29:35;5.50;99.90
19952;DHT22;10137;49.406;19.484;2022-11-25T11:32:17;5.50;99.90
19952;DHT22;10137;49.406;19.484;2022-11-25T11:34:57;5.50;99.90
19952;DHT22;10137;49.406;19.484;2022-11-25T11:37:38;5.50;99.90
19952;DHT22;10137;49.406;19.484;2022-11-25T11:40:32;5.40;99.90
19952;DHT22;10137;49.406;19.484;2022-11-25T11:43:15;5.30;99.90
19952;DHT22;10137;49.406;19.484;2022-11-25T11:46:01;5.30;99.90
19952;DHT22;10137;49.406;19.484;2022-11-25T11:48:38;5.20;99.90
19952;DHT22;10137;49.406;19.484;2022-11-25T11:51:13;5.20;99.90
19952;DHT22;10137;49.406;19.484;2022-11-25T11:53:58;5.20;99.90
19952;DHT22;10137;49.406;19.484;2022-11-25T11:56:32;5.20;99.90
19952;DHT22;10137;49.406;19.484;2022-11-25T11:59:17;5.20;99.90
19952;DHT22;10137;49.406;19.484;2022-11-25T12:01:57;5.20;99.90
19952;DHT22;10137;49.406;19.484;2022-11-25T12:04:36;5.30;99.90
19952;DHT22;10137;49.406;19.484;2022-11-25T12:07:09;5.20;99.90
19952;DHT22;10137;49.406;19.484;2022-11-25T12:09:44;5.10;99.90
19952;DHT22;10137;49.406;19.484;2022-11-25T12:12:17;5.10;99.90
19952;DHT22;10137;49.406;19.484;2022-11-25T12:14:48;5.20;99.90
19952;DHT22;10137;49.406;19.484;2022-11-25T12:17:22;5.10;99.90
19952;DHT22;10137;49.406;19.484;2022-11-25T12:19:57;5.20;99.90
19952;DHT22;10137;49.406;19.484;2022-11-25T12:22:33;5.30;99.90
19952;DHT22;10137;49.406;19.484;2022-11-25T12:25:06;5.20;99.90
19952;DHT22;10137;49.406;19.484;2022-11-25T12:27:39;5.20;99.90
19952;DHT22;10137;49.406;19.484;2022-11-25T12:30:14;5.30;99.90
19952;DHT22;10137;49.406;19.484;2022-11-25T12:33:04;5.30;99.90
19952;DHT22;10137;49.406;19.484;2022-11-25T12:35:50;5.40;99.90
19952;DHT22;10137;49.406;19.484;2022-11-25T12:38:26;5.40;99.90
19952;DHT22;10137;49.406;19.484;2022-11-25T12:41:01;5.50;99.90
19952;DHT22;10137;49.406;19.484;2022-11-25T12:43:40;5.50;99.90
19952;DHT22;10137;49.406;19.484;2022-11-25T12:46:23;5.40;99.90
19952;DHT22;10137;49.406;19.484;2022-11-25T12:48:56;5.40;99.90
19952;DHT22;10137;49.406;19.484;2022-11-25T12:51:38;5.40;99.90
19952;DHT22;10137;49.406;19.484;2022-11-25T12:54:20;5.40;99.90
19952;DHT22;10137;49.406;19.484;2022-11-25T12:57:21;5.40;99.90
19952;DHT22;10137;49.406;19.484;2022-11-25T13:00:06;5.40;99.90
19952;DHT22;10137;49.406;19.484;2022-11-25T13:03:02;5.40;99.90
19952;DHT22;10137;49.406;19.484;2022-11-25T13:06:03;5.30;99.90
19952;DHT22;10137;49.406;19.484;2022-11-25T13:08:49;5.30;99.90
19952;DHT22;10137;49.406;19.484;2022-11-25T13:11:40;5.30;99.90
19952;DHT22;10137;49.406;19.484;2022-11-25T13:14:23;5.40;99.90
19952;DHT22;10137;49.406;19.484;2022-11-25T13:16:53;5.30;99.90
19952;DHT22;10137;49.406;19.484;2022-11-25T13:19:23;5.30;99.90
19952;DHT22;10137;49.406;19.484;2022-11-25T13:22:02;5.30;99.90
19952;DHT22;10137;49.406;19.484;2022-11-25T13:24:36;5.30;99.90
19952;DHT22;10137;49.406;19.484;2022-11-25T13:27:07;5.30;99.90
19952;DHT22;10137;49.406;19.484;2022-11-25T13:29:54;5.30;99.90
19952;DHT22;10137;49.406;19.484;2022-11-25T13:32:40;5.20;99.90
19952;DHT22;10137;49.406;19.484;2022-11-25T13:35:47;5.10;99.90
19952;DHT22;10137;49.406;19.484;2022-11-25T13:41:56;5.10;99.90
19952;DHT22;10137;49.406;19.484;2022-11-25T13:44:26;5.10;99.90
19952;DHT22;10137;49.406;19.484;2022-11-25T13:46:57;5.00;99.90
19952;DHT22;10137;49.406;19.484;2022-11-25T13:49:41;5.00;99.90
19952;DHT22;10137;49.406;19.484;2022-11-25T13:52:38;5.10;99.90
19952;DHT22;10137;49.406;19.484;2022-11-25T13:55:21;5.10;99.90
19952;DHT22;10137;49.406;19.484;2022-11-25T14:01:00;5.10;99.90
19952;DHT22;10137;49.406;19.484;2022-11-25T14:03:59;5.10;99.90
19952;DHT22;10137;49.406;19.484;2022-11-25T14:06:55;5.10;99.90
19952;DHT22;10137;49.406;19.484;2022-11-25T14:09:45;5.00;99.90
19952;DHT22;10137;49.406;19.484;2022-11-25T14:12:26;5.00;99.90
19952;DHT22;10137;49.406;19.484;2022-11-25T14:15:24;5.00;99.90
19952;DHT22;10137;49.406;19.484;2022-11-25T14:18:23;4.90;99.90
19952;DHT22;10137;49.406;19.484;2022-11-25T14:20:57;4.90;99.90
19952;DHT22;10137;49.406;19.484;2022-11-25T14:23:45;4.80;99.90
19952;DHT22;10137;49.406;19.484;2022-11-25T14:26:25;4.90;99.90
19952;DHT22;10137;49.406;19.484;2022-11-25T14:28:57;4.90;99.90
19952;DHT22;10137;49.406;19.484;2022-11-25T14:31:32;4.90;99.90
19952;DHT22;10137;49.406;19.484;2022-11-25T14:34:08;4.90;99.90
19952;DHT22;10137;49.406;19.484;2022-11-25T14:36:41;4.90;99.90
19952;DHT22;10137;49.406;19.484;2022-11-25T14:39:20;4.80;99.90
19952;DHT22;10137;49.406;19.484;2022-11-25T14:41:54;4.90;99.90
19952;DHT22;10137;49.406;19.484;2022-11-25T14:44:26;4.90;99.90
19952;DHT22;10137;49.406;19.484;2022-11-25T14:46:57;4.80;99.90
19952;DHT22;10137;49.406;19.484;2022-11-25T14:49:24;4.90;99.90
19952;DHT22;10137;49.406;19.484;2022-11-25T14:52:06;4.80;99.90
19952;DHT22;10137;49.406;19.484;2022-11-25T14:54:39;4.80;99.90
19952;DHT22;10137;49.406;19.484;2022-11-25T14:57:06;4.90;99.90
19952;DHT22;10137;49.406;19.484;2022-11-25T14:59:34;4.90;99.90
19952;DHT22;10137;49.406;19.484;2022-11-25T15:02:04;4.70;99.90
19952;DHT22;10137;49.406;19.484;2022-11-25T15:04:32;4.70;99.90
19952;DHT22;10137;49.406;19.484;2022-11-25T15:06:59;4.80;99.90
19952;DHT22;10137;49.406;19.484;2022-11-25T15:09:28;4.80;99.90
19952;DHT22;10137;49.406;19.484;2022-11-25T15:11:57;4.80;99.90
19952;DHT22;10137;49.406;19.484;2022-11-25T19:14:28;3.40;99.90
19952;DHT22;10137;49.406;19.484;2022-11-25T19:17:00;3.40;99.90
19952;DHT22;10137;49.406;19.484;2022-11-25T19:19:29;3.40;99.90
19952;DHT22;10137;49.406;19.484;2022-11-25T19:21:57;3.30;99.90
19952;DHT22;10137;49.406;19.484;2022-11-25T19:24:27;3.20;99.90
19952;DHT22;10137;49.406;19.484;2022-11-25T19:26:56;3.30;99.90
19952;DHT22;10137;49.406;19.484;2022-11-25T19:29:34;3.30;99.90
19952;DHT22;10137;49.406;19.484;2022-11-25T19:32:03;3.30;99.90
19952;DHT22;10137;49.406;19.484;2022-11-25T19:34:45;3.40;99.90
19952;DHT22;10137;49.406;19.484;2022-11-25T19:37:18;3.40;99.90
19952;DHT22;10137;49.406;19.484;2022-11-25T19:39:50;3.40;99.90
19952;DHT22;10137;49.406;19.484;2022-11-25T19:42:19;3.40;99.90
19952;DHT22;10137;49.406;19.484;2022-11-25T19:44:54;3.50;99.90
19952;DHT22;10137;49.406;19.484;2022-11-25T19:47:23;3.50;99.90
19952;DHT22;10137;49.406;19.484;2022-11-25T19:49:56;3.50;99.90
19952;DHT22;10137;49.406;19.484;2022-11-25T19:52:31;3.60;99.90
19952;DHT22;10137;49.406;19.484;2022-11-25T19:55:00;3.40;99.90
19952;DHT22;10137;49.406;19.484;2022-11-25T19:57:30;3.50;99.90
19952;DHT22;10137;49.406;19.484;2022-11-25T19:59:58;3.50;99.90
19952;DHT22;10137;49.406;19.484;2022-11-25T20:02:28;3.50;99.90
19952;DHT22;10137;49.406;19.484;2022-11-25T20:04:56;3.60;99.90
19952;DHT22;10137;49.406;19.484;2022-11-25T20:07:25;3.50;99.90
19952;DHT22;10137;49.406;19.484;2022-11-25T20:09:58;3.50;99.90